Terminal Aerodrome Forecast
Issued by NWS

Home | Current Version | Previous Version | Text Only | Print | Product List | Glossary On
Versions: 1 2 3 4 5 6 7 8 9 10 11 12 13 14
000
FTUS42 TJSJ 221100 RRA
TAFJPS
TAF
TJPS 221139Z 2212/2312 07004KT P6SM FEW025
     FM221600 14012KT P6SM VCSH SCT025 SCT050
     FM222330 07004KT P6SM FEW030 SCT060
      AMD NOT SKED TIL 230300=

USA.gov is the U.S. government's official web portal to all federal, state and local government web resources and services.